sensor_id;sensor_type;location;lat;lon;timestamp;pressure;altitude;pressure_sealevel;temperature;humidity
64698;BME280;51124;53.394;-6.294;2023-05-17T00:00:45;102228.48;;;19.15;8.44
64698;BME280;51124;53.394;-6.294;2023-05-17T00:03:12;102231.41;;;20.81;8.22
64698;BME280;51124;53.394;-6.294;2023-05-17T00:05:39;102226.27;;;19.69;8.33
64698;BME280;51124;53.394;-6.294;2023-05-17T00:08:07;102230.52;;;21.02;8.28
64698;BME280;51124;53.394;-6.294;2023-05-17T00:10:34;102231.12;;;19.86;8.38
64698;BME280;51124;53.394;-6.294;2023-05-17T00:13:01;102228.31;;;19.96;8.16
64698;BME280;51124;53.394;-6.294;2023-05-17T00:15:29;102234.40;;;19.92;8.21
64698;BME280;51124;53.394;-6.294;2023-05-17T00:17:56;102235.59;;;19.54;8.24
64698;BME280;51124;53.394;-6.294;2023-05-17T00:20:24;102235.73;;;19.28;8.32
64698;BME280;51124;53.394;-6.294;2023-05-17T00:22:52;102236.94;;;22.40;8.16
64698;BME280;51124;53.394;-6.294;2023-05-17T00:25:20;102231.90;;;22.68;8.48
64698;BME280;51124;53.394;-6.294;2023-05-17T00:27:47;102231.93;;;22.40;8.84
64698;BME280;51124;53.394;-6.294;2023-05-17T00:30:15;102236.05;;;21.31;9.02
64698;BME280;51124;53.394;-6.294;2023-05-17T00:32:42;102235.02;;;20.58;9.12
64698;BME280;51124;53.394;-6.294;2023-05-17T00:35:10;102233.59;;;22.72;8.82
64698;BME280;51124;53.394;-6.294;2023-05-17T00:37:37;102233.74;;;23.10;9.20
64698;BME280;51124;53.394;-6.294;2023-05-17T00:40:06;102233.02;;;22.93;9.70
64698;BME280;51124;53.394;-6.294;2023-05-17T00:42:34;102240.45;;;22.23;9.91
64698;BME280;51124;53.394;-6.294;2023-05-17T00:45:02;102240.65;;;23.00;9.72
64698;BME280;51124;53.394;-6.294;2023-05-17T00:47:29;102240.31;;;22.05;9.99
64698;BME280;51124;53.394;-6.294;2023-05-17T00:49:56;102234.82;;;22.02;10.03
64698;BME280;51124;53.394;-6.294;2023-05-17T00:52:24;102235.30;;;23.19;10.02
64698;BME280;51124;53.394;-6.294;2023-05-17T00:54:53;102237.95;;;22.98;10.07
64698;BME280;51124;53.394;-6.294;2023-05-17T00:57:21;102243.77;;;22.19;10.03
64698;BME280;51124;53.394;-6.294;2023-05-17T00:59:48;102247.01;;;21.78;10.38
64698;BME280;51124;53.394;-6.294;2023-05-17T01:02:17;102248.59;;;22.15;10.18
64698;BME280;51124;53.394;-6.294;2023-05-17T01:04:45;102251.98;;;21.83;10.38
64698;BME280;51124;53.394;-6.294;2023-05-17T01:07:14;102248.42;;;22.52;10.28
64698;BME280;51124;53.394;-6.294;2023-05-17T01:09:41;102256.19;;;21.88;10.36
64698;BME280;51124;53.394;-6.294;2023-05-17T01:12:20;102258.83;;;22.09;10.19
64698;BME280;51124;53.394;-6.294;2023-05-17T01:14:47;102260.05;;;22.21;10.25
64698;BME280;51124;53.394;-6.294;2023-05-17T01:17:11;102255.83;;;21.76;10.50
64698;BME280;51124;53.394;-6.294;2023-05-17T01:19:50;102254.28;;;22.02;10.27
64698;BME280;51124;53.394;-6.294;2023-05-17T01:22:14;102250.50;;;21.48;10.41
64698;BME280;51124;53.394;-6.294;2023-05-17T01:24:51;102251.74;;;21.74;10.37
64698;BME280;51124;53.394;-6.294;2023-05-17T01:27:11;102246.46;;;21.08;10.32
64698;BME280;51124;53.394;-6.294;2023-05-17T01:29:41;102250.90;;;20.94;10.05
64698;BME280;51124;53.394;-6.294;2023-05-17T01:32:10;102252.53;;;20.21;9.79
64698;BME280;51124;53.394;-6.294;2023-05-17T01:34:37;102245.84;;;20.80;9.58
64698;BME280;51124;53.394;-6.294;2023-05-17T01:37:05;102247.85;;;20.28;9.38
64698;BME280;51124;53.394;-6.294;2023-05-17T01:39:32;102247.98;;;20.50;9.22
64698;BME280;51124;53.394;-6.294;2023-05-17T01:42:09;102244.39;;;19.62;9.58
64698;BME280;51124;53.394;-6.294;2023-05-17T01:44:36;102241.96;;;20.75;9.09
64698;BME280;51124;53.394;-6.294;2023-05-17T01:47:04;102239.35;;;19.54;9.20
64698;BME280;51124;53.394;-6.294;2023-05-17T01:49:29;102243.81;;;19.65;9.19
64698;BME280;51124;53.394;-6.294;2023-05-17T01:52:01;102237.95;;;19.23;8.95
64698;BME280;51124;53.394;-6.294;2023-05-17T01:54:35;102242.75;;;19.95;8.86
64698;BME280;51124;53.394;-6.294;2023-05-17T01:57:06;102240.04;;;19.57;8.97
64698;BME280;51124;53.394;-6.294;2023-05-17T01:59:37;102239.33;;;19.85;8.81
64698;BME280;51124;53.394;-6.294;2023-05-17T02:02:05;102238.49;;;21.97;8.78
64698;BME280;51124;53.394;-6.294;2023-05-17T02:04:33;102238.70;;;19.42;8.85
64698;BME280;51124;53.394;-6.294;2023-05-17T02:07:00;102238.83;;;19.84;8.79
64698;BME280;51124;53.394;-6.294;2023-05-17T02:09:28;102241.86;;;18.80;8.98
64698;BME280;51124;53.394;-6.294;2023-05-17T02:11:56;102241.07;;;19.10;8.69
64698;BME280;51124;53.394;-6.294;2023-05-17T02:14:23;102235.97;;;19.49;8.55
64698;BME280;51124;53.394;-6.294;2023-05-17T02:16:51;102242.46;;;20.13;8.39
64698;BME280;51124;53.394;-6.294;2023-05-17T02:19:18;102240.40;;;20.22;8.41
64698;BME280;51124;53.394;-6.294;2023-05-17T02:21:45;102242.40;;;19.58;8.56
64698;BME280;51124;53.394;-6.294;2023-05-17T02:24:12;102247.35;;;20.23;8.45
64698;BME280;51124;53.394;-6.294;2023-05-17T02:26:40;102241.90;;;19.61;8.42
64698;BME280;51124;53.394;-6.294;2023-05-17T02:29:07;102242.45;;;19.29;8.51
64698;BME280;51124;53.394;-6.294;2023-05-17T02:31:32;102238.06;;;19.56;8.46
64698;BME280;51124;53.394;-6.294;2023-05-17T02:33:58;102240.46;;;20.41;8.17
64698;BME280;51124;53.394;-6.294;2023-05-17T02:36:23;102241.45;;;20.53;8.19
64698;BME280;51124;53.394;-6.294;2023-05-17T02:38:48;102242.96;;;18.89;8.56
64698;BME280;51124;53.394;-6.294;2023-05-17T02:41:14;102239.70;;;19.62;8.41
64698;BME280;51124;53.394;-6.294;2023-05-17T02:43:39;102234.21;;;20.02;8.39
64698;BME280;51124;53.394;-6.294;2023-05-17T02:46:05;102234.92;;;19.43;8.52
64698;BME280;51124;53.394;-6.294;2023-05-17T02:48:30;102233.49;;;20.21;8.36
64698;BME280;51124;53.394;-6.294;2023-05-17T02:50:55;102233.90;;;19.37;8.48
64698;BME280;51124;53.394;-6.294;2023-05-17T02:53:20;102231.79;;;19.88;8.44
64698;BME280;51124;53.394;-6.294;2023-05-17T02:55:46;102235.79;;;19.10;8.59
64698;BME280;51124;53.394;-6.294;2023-05-17T02:58:11;102232.80;;;20.18;8.26
64698;BME280;51124;53.394;-6.294;2023-05-17T03:00:38;102230.58;;;20.10;8.31
64698;BME280;51124;53.394;-6.294;2023-05-17T03:03:06;102223.46;;;19.12;8.33
64698;BME280;51124;53.394;-6.294;2023-05-17T03:05:34;102233.65;;;18.71;8.65
64698;BME280;51124;53.394;-6.294;2023-05-17T03:08:01;102228.96;;;19.93;8.28
64698;BME280;51124;53.394;-6.294;2023-05-17T03:10:29;102233.80;;;19.74;8.52
64698;BME280;51124;53.394;-6.294;2023-05-17T03:12:56;102233.17;;;18.12;8.58
64698;BME280;51124;53.394;-6.294;2023-05-17T03:15:23;102226.94;;;20.08;8.64
64698;BME280;51124;53.394;-6.294;2023-05-17T03:17:51;102226.65;;;20.11;8.48
64698;BME280;51124;53.394;-6.294;2023-05-17T03:20:18;102219.09;;;19.98;8.38
64698;BME280;51124;53.394;-6.294;2023-05-17T03:22:45;102212.05;;;19.02;8.58
64698;BME280;51124;53.394;-6.294;2023-05-17T03:25:13;102213.18;;;19.59;8.39
64698;BME280;51124;53.394;-6.294;2023-05-17T03:27:40;102217.89;;;19.20;8.54
64698;BME280;51124;53.394;-6.294;2023-05-17T03:30:08;102214.71;;;19.62;8.60
64698;BME280;51124;53.394;-6.294;2023-05-17T03:32:37;102220.24;;;19.76;8.47
64698;BME280;51124;53.394;-6.294;2023-05-17T03:35:05;102216.69;;;19.74;8.48
64698;BME280;51124;53.394;-6.294;2023-05-17T03:37:32;102222.21;;;19.18;8.63
64698;BME280;51124;53.394;-6.294;2023-05-17T03:40:00;102218.75;;;20.10;8.30
64698;BME280;51124;53.394;-6.294;2023-05-17T03:42:27;102219.16;;;19.33;8.50
64698;BME280;51124;53.394;-6.294;2023-05-17T03:44:55;102214.13;;;19.33;8.47
64698;BME280;51124;53.394;-6.294;2023-05-17T03:47:22;102216.80;;;20.75;8.42
64698;BME280;51124;53.394;-6.294;2023-05-17T03:49:50;102227.09;;;21.39;8.89
64698;BME280;51124;53.394;-6.294;2023-05-17T03:52:18;102225.40;;;21.65;9.11
64698;BME280;51124;53.394;-6.294;2023-05-17T03:54:45;102222.84;;;20.82;9.50
64698;BME280;51124;53.394;-6.294;2023-05-17T03:57:13;102219.00;;;19.71;9.49
64698;BME280;51124;53.394;-6.294;2023-05-17T03:59:40;102216.98;;;19.21;9.47
64698;BME280;51124;53.394;-6.294;2023-05-17T04:02:07;102223.51;;;21.59;9.58
64698;BME280;51124;53.394;-6.294;2023-05-17T04:04:35;102226.56;;;22.30;9.86
64698;BME280;51124;53.394;-6.294;2023-05-17T04:07:03;102228.74;;;22.02;10.09
64698;BME280;51124;53.394;-6.294;2023-05-17T04:09:32;102230.22;;;21.12;10.33
64698;BME280;51124;53.394;-6.294;2023-05-17T04:11:59;102226.69;;;21.88;10.13
64698;BME280;51124;53.394;-6.294;2023-05-17T04:14:27;102228.12;;;21.44;10.50
64698;BME280;51124;53.394;-6.294;2023-05-17T04:16:54;102226.70;;;21.17;10.53
64698;BME280;51124;53.394;-6.294;2023-05-17T04:19:22;102224.89;;;21.37;10.53
64698;BME280;51124;53.394;-6.294;2023-05-17T04:21:49;102223.50;;;20.84;10.51
64698;BME280;51124;53.394;-6.294;2023-05-17T04:24:17;102225.31;;;21.46;10.48
64698;BME280;51124;53.394;-6.294;2023-05-17T04:26:44;102222.68;;;21.15;10.61
64698;BME280;51124;53.394;-6.294;2023-05-17T04:29:12;102219.83;;;21.35;10.63
64698;BME280;51124;53.394;-6.294;2023-05-17T04:31:39;102222.55;;;21.64;10.37
64698;BME280;51124;53.394;-6.294;2023-05-17T04:34:07;102219.58;;;21.17;10.49
64698;BME280;51124;53.394;-6.294;2023-05-17T04:36:34;102223.55;;;21.46;10.70
64698;BME280;51124;53.394;-6.294;2023-05-17T04:39:02;102223.86;;;21.46;10.53
64698;BME280;51124;53.394;-6.294;2023-05-17T04:41:29;102224.61;;;21.71;10.52
64698;BME280;51124;53.394;-6.294;2023-05-17T04:43:57;102225.32;;;21.01;10.58
64698;BME280;51124;53.394;-6.294;2023-05-17T04:46:24;102224.06;;;22.24;10.42
64698;BME280;51124;53.394;-6.294;2023-05-17T04:48:52;102229.36;;;21.44;10.52
64698;BME280;51124;53.394;-6.294;2023-05-17T04:51:20;102232.48;;;20.46;10.60
64698;BME280;51124;53.394;-6.294;2023-05-17T04:53:47;102236.90;;;20.03;10.36
64698;BME280;51124;53.394;-6.294;2023-05-17T04:56:14;102235.05;;;19.40;10.14
64698;BME280;51124;53.394;-6.294;2023-05-17T04:58:42;102234.36;;;19.12;10.04
64698;BME280;51124;53.394;-6.294;2023-05-17T05:01:09;102237.08;;;19.76;9.63
64698;BME280;51124;53.394;-6.294;2023-05-17T05:03:36;102237.59;;;19.86;9.67
64698;BME280;51124;53.394;-6.294;2023-05-17T05:06:04;102239.62;;;20.12;9.49
64698;BME280;51124;53.394;-6.294;2023-05-17T05:08:32;102240.40;;;19.95;9.29
64698;BME280;51124;53.394;-6.294;2023-05-17T05:10:59;102245.36;;;19.09;9.23
64698;BME280;51124;53.394;-6.294;2023-05-17T05:13:27;102241.80;;;19.49;8.99
64698;BME280;51124;53.394;-6.294;2023-05-17T05:15:54;102239.66;;;20.14;8.97
64698;BME280;51124;53.394;-6.294;2023-05-17T05:18:22;102247.65;;;19.90;8.71
64698;BME280;51124;53.394;-6.294;2023-05-17T05:20:49;102253.31;;;20.14;8.67
64698;BME280;51124;53.394;-6.294;2023-05-17T05:23:17;102257.34;;;19.89;8.68
64698;BME280;51124;53.394;-6.294;2023-05-17T05:25:44;102256.60;;;19.72;8.85
64698;BME280;51124;53.394;-6.294;2023-05-17T05:28:12;102254.25;;;19.80;8.71
64698;BME280;51124;53.394;-6.294;2023-05-17T05:30:39;102255.32;;;20.22;8.45
64698;BME280;51124;53.394;-6.294;2023-05-17T05:33:06;102255.31;;;19.53;8.49
64698;BME280;51124;53.394;-6.294;2023-05-17T05:35:34;102264.51;;;19.85;8.53
64698;BME280;51124;53.394;-6.294;2023-05-17T05:38:01;102270.85;;;19.65;8.33
64698;BME280;51124;53.394;-6.294;2023-05-17T05:40:28;102272.83;;;20.74;8.26
64698;BME280;51124;53.394;-6.294;2023-05-17T05:42:56;102272.68;;;19.94;8.17
64698;BME280;51124;53.394;-6.294;2023-05-17T05:45:23;102280.67;;;19.46;8.31
64698;BME280;51124;53.394;-6.294;2023-05-17T05:47:50;102280.50;;;20.37;8.10
64698;BME280;51124;53.394;-6.294;2023-05-17T05:50:18;102274.59;;;20.58;8.09
64698;BME280;51124;53.394;-6.294;2023-05-17T05:52:45;102273.42;;;19.75;7.88
64698;BME280;51124;53.394;-6.294;2023-05-17T05:55:13;102268.63;;;20.48;8.02
64698;BME280;51124;53.394;-6.294;2023-05-17T05:57:40;102277.69;;;20.41;8.13
64698;BME280;51124;53.394;-6.294;2023-05-17T06:00:08;102285.76;;;19.69;8.08
64698;BME280;51124;53.394;-6.294;2023-05-17T06:02:36;102292.11;;;20.61;7.94
64698;BME280;51124;53.394;-6.294;2023-05-17T06:05:03;102289.69;;;19.88;8.08
64698;BME280;51124;53.394;-6.294;2023-05-17T06:07:31;102289.56;;;19.75;8.11
64698;BME280;51124;53.394;-6.294;2023-05-17T06:09:59;102297.19;;;19.81;8.19
64698;BME280;51124;53.394;-6.294;2023-05-17T06:12:26;102305.56;;;19.73;8.13
64698;BME280;51124;53.394;-6.294;2023-05-17T06:14:54;102299.01;;;20.37;8.03
64698;BME280;51124;53.394;-6.294;2023-05-17T06:17:21;102298.57;;;21.04;7.79
64698;BME280;51124;53.394;-6.294;2023-05-17T06:19:49;102301.13;;;20.13;7.98
64698;BME280;51124;53.394;-6.294;2023-05-17T06:22:16;102304.30;;;20.26;7.91
64698;BME280;51124;53.394;-6.294;2023-05-17T06:24:41;102301.88;;;20.75;7.83
64698;BME280;51124;53.394;-6.294;2023-05-17T06:27:07;102304.81;;;20.18;7.86
64698;BME280;51124;53.394;-6.294;2023-05-17T06:29:32;102307.31;;;19.86;7.98
64698;BME280;51124;53.394;-6.294;2023-05-17T06:31:57;102302.55;;;20.80;7.82
64698;BME280;51124;53.394;-6.294;2023-05-17T06:34:23;102307.93;;;20.37;7.90
64698;BME280;51124;53.394;-6.294;2023-05-17T06:36:48;102301.97;;;20.74;7.80
64698;BME280;51124;53.394;-6.294;2023-05-17T06:39:13;102304.50;;;21.91;7.84
64698;BME280;51124;53.394;-6.294;2023-05-17T06:41:41;102300.19;;;21.25;7.83
64698;BME280;51124;53.394;-6.294;2023-05-17T06:44:09;102305.66;;;19.31;8.28
64698;BME280;51124;53.394;-6.294;2023-05-17T06:46:36;102300.20;;;20.45;7.83
64698;BME280;51124;53.394;-6.294;2023-05-17T06:49:44;102305.80;;;19.52;8.93
64698;BME280;51124;53.394;-6.294;2023-05-17T06:52:03;102309.99;;;19.19;9.20
64698;BME280;51124;53.394;-6.294;2023-05-17T06:54:30;102312.34;;;19.69;9.46
64698;BME280;51124;53.394;-6.294;2023-05-17T06:57:00;102311.04;;;18.37;9.41
64698;BME280;51124;53.394;-6.294;2023-05-17T06:59:28;102314.36;;;18.79;9.30
64698;BME280;51124;53.394;-6.294;2023-05-17T07:02:16;102309.68;;;21.66;9.02
64698;BME280;51124;53.394;-6.294;2023-05-17T07:04:36;102314.57;;;21.62;9.04
64698;BME280;51124;53.394;-6.294;2023-05-17T07:07:02;102314.46;;;19.57;9.39
64698;BME280;51124;53.394;-6.294;2023-05-17T07:09:38;102312.23;;;19.53;9.60
64698;BME280;51124;53.394;-6.294;2023-05-17T07:11:54;102309.65;;;21.33;9.09
64698;BME280;51124;53.394;-6.294;2023-05-17T07:15:05;102314.08;;;19.91;9.61
64698;BME280;51124;53.394;-6.294;2023-05-17T07:17:36;102312.08;;;20.20;9.67
64698;BME280;51124;53.394;-6.294;2023-05-17T07:20:00;102313.74;;;21.43;9.27
64698;BME280;51124;53.394;-6.294;2023-05-17T07:22:57;102303.08;;;21.64;9.13
64698;BME280;51124;53.394;-6.294;2023-05-17T07:25:35;102311.19;;;21.90;9.60
64698;BME280;51124;53.394;-6.294;2023-05-17T07:27:21;102312.99;;;22.62;9.39
64698;BME280;51124;53.394;-6.294;2023-05-17T07:29:48;102311.70;;;22.46;9.85
64698;BME280;51124;53.394;-6.294;2023-05-17T07:32:28;102312.73;;;22.56;9.66
64698;BME280;51124;53.394;-6.294;2023-05-17T07:34:46;102302.84;;;23.16;9.40
64698;BME280;51124;53.394;-6.294;2023-05-17T07:37:12;102304.63;;;23.10;9.31
64698;BME280;51124;53.394;-6.294;2023-05-17T07:39:38;102308.44;;;21.73;9.63
64698;BME280;51124;53.394;-6.294;2023-05-17T07:42:04;102307.72;;;21.67;9.41
64698;BME280;51124;53.394;-6.294;2023-05-17T07:44:30;102302.45;;;23.19;8.87
64698;BME280;51124;53.394;-6.294;2023-05-17T07:46:55;102303.56;;;24.57;9.14
64698;BME280;51124;53.394;-6.294;2023-05-17T07:49:23;102300.86;;;24.76;9.33
64698;BME280;51124;53.394;-6.294;2023-05-17T07:51:48;102299.27;;;24.29;9.44
64698;BME280;51124;53.394;-6.294;2023-05-17T07:54:30;102295.84;;;25.27;9.43
64698;BME280;51124;53.394;-6.294;2023-05-17T07:56:48;102299.32;;;24.31;9.51
64698;BME280;51124;53.394;-6.294;2023-05-17T07:59:15;102296.80;;;24.77;9.58
64698;BME280;51124;53.394;-6.294;2023-05-17T08:01:48;102292.69;;;25.13;9.49
64698;BME280;51124;53.394;-6.294;2023-05-17T08:04:30;102295.83;;;24.36;9.59
64698;BME280;51124;53.394;-6.294;2023-05-17T08:06:48;102297.27;;;24.49;9.50
64698;BME280;51124;53.394;-6.294;2023-05-17T08:09:17;102297.96;;;24.41;9.51
64698;BME280;51124;53.394;-6.294;2023-05-17T08:11:45;102300.76;;;24.74;9.49
64698;BME280;51124;53.394;-6.294;2023-05-17T08:14:13;102297.82;;;24.66;9.63
64698;BME280;51124;53.394;-6.294;2023-05-17T08:16:42;102298.35;;;25.04;9.53
64698;BME280;51124;53.394;-6.294;2023-05-17T08:19:25;102295.71;;;25.07;9.62
64698;BME280;51124;53.394;-6.294;2023-05-17T08:22:02;102297.36;;;24.54;9.51
64698;BME280;51124;53.394;-6.294;2023-05-17T08:24:11;102297.79;;;24.10;9.73
64698;BME280;51124;53.394;-6.294;2023-05-17T08:26:39;102295.74;;;24.55;9.32
64698;BME280;51124;53.394;-6.294;2023-05-17T08:29:07;102295.52;;;24.97;9.28
64698;BME280;51124;53.394;-6.294;2023-05-17T08:31:35;102296.19;;;25.10;9.41
64698;BME280;51124;53.394;-6.294;2023-05-17T08:34:06;102297.03;;;24.76;9.37
64698;BME280;51124;53.394;-6.294;2023-05-17T08:36:35;102291.43;;;24.01;9.60
64698;BME280;51124;53.394;-6.294;2023-05-17T08:39:05;102286.06;;;23.98;9.50
64698;BME280;51124;53.394;-6.294;2023-05-17T08:41:32;102286.70;;;23.48;9.40
64698;BME280;51124;53.394;-6.294;2023-05-17T08:44:01;102285.10;;;23.16;9.19
64698;BME280;51124;53.394;-6.294;2023-05-17T08:46:29;102284.03;;;23.18;8.92
64698;BME280;51124;53.394;-6.294;2023-05-17T08:48:59;102284.72;;;23.77;8.67
64698;BME280;51124;53.394;-6.294;2023-05-17T08:51:30;102278.65;;;23.51;8.52
64698;BME280;51124;53.394;-6.294;2023-05-17T08:53:59;102280.21;;;25.09;8.41
64698;BME280;51124;53.394;-6.294;2023-05-17T08:56:25;102280.35;;;23.47;8.47
64698;BME280;51124;53.394;-6.294;2023-05-17T08:58:54;102280.18;;;22.90;8.47
64698;BME280;51124;53.394;-6.294;2023-05-17T09:01:20;102282.36;;;23.09;8.24
64698;BME280;51124;53.394;-6.294;2023-05-17T09:03:47;102285.44;;;23.11;8.17
64698;BME280;51124;53.394;-6.294;2023-05-17T09:06:13;102286.54;;;23.51;7.98
64698;BME280;51124;53.394;-6.294;2023-05-17T09:08:39;102289.69;;;23.84;7.92
64698;BME280;51124;53.394;-6.294;2023-05-17T09:11:04;102285.76;;;23.61;7.88
64698;BME280;51124;53.394;-6.294;2023-05-17T09:13:30;102284.57;;;23.81;7.88
64698;BME280;51124;53.394;-6.294;2023-05-17T09:15:56;102285.09;;;23.86;7.78
64698;BME280;51124;53.394;-6.294;2023-05-17T09:18:29;102288.73;;;23.93;7.75
64698;BME280;51124;53.394;-6.294;2023-05-17T09:20:55;102290.17;;;23.74;7.77
64698;BME280;51124;53.394;-6.294;2023-05-17T09:23:21;102287.67;;;23.28;7.88
64698;BME280;51124;53.394;-6.294;2023-05-17T09:25:47;102288.30;;;23.23;7.78
64698;BME280;51124;53.394;-6.294;2023-05-17T09:28:13;102284.79;;;24.22;7.68
64698;BME280;51124;53.394;-6.294;2023-05-17T09:30:39;102283.49;;;23.25;7.64
64698;BME280;51124;53.394;-6.294;2023-05-17T09:33:07;102287.19;;;23.39;7.70
64698;BME280;51124;53.394;-6.294;2023-05-17T09:35:36;102287.54;;;24.64;7.52
64698;BME280;51124;53.394;-6.294;2023-05-17T09:38:07;102290.46;;;23.06;7.68
64698;BME280;51124;53.394;-6.294;2023-05-17T09:40:38;102288.39;;;23.84;7.80
64698;BME280;51124;53.394;-6.294;2023-05-17T09:43:06;102283.36;;;22.87;7.74
64698;BME280;51124;53.394;-6.294;2023-05-17T09:45:35;102287.01;;;23.77;7.62
64698;BME280;51124;53.394;-6.294;2023-05-17T09:48:21;102289.40;;;23.59;7.56
64698;BME280;51124;53.394;-6.294;2023-05-17T09:50:28;102285.91;;;24.79;7.47
64698;BME280;51124;53.394;-6.294;2023-05-17T09:52:59;102284.92;;;24.40;7.50
64698;BME280;51124;53.394;-6.294;2023-05-17T09:55:26;102279.72;;;24.20;7.45
64698;BME280;51124;53.394;-6.294;2023-05-17T09:57:54;102281.75;;;24.73;7.28
64698;BME280;51124;53.394;-6.294;2023-05-17T10:00:29;102278.36;;;24.02;7.46
64698;BME280;51124;53.394;-6.294;2023-05-17T10:02:58;102278.63;;;25.18;7.38
64698;BME280;51124;53.394;-6.294;2023-05-17T10:05:27;102278.82;;;24.91;7.43
64698;BME280;51124;53.394;-6.294;2023-05-17T10:07:55;102274.93;;;23.50;7.56
64698;BME280;51124;53.394;-6.294;2023-05-17T10:10:23;102273.43;;;24.20;7.46
64698;BME280;51124;53.394;-6.294;2023-05-17T10:12:52;102273.36;;;24.09;7.47
64698;BME280;51124;53.394;-6.294;2023-05-17T10:15:20;102262.40;;;24.11;7.30
64698;BME280;51124;53.394;-6.294;2023-05-17T10:17:48;102261.14;;;23.91;7.40
64698;BME280;51124;53.394;-6.294;2023-05-17T10:20:16;102257.11;;;24.57;7.49
64698;BME280;51124;53.394;-6.294;2023-05-17T10:22:44;102257.40;;;24.94;7.41
64698;BME280;51124;53.394;-6.294;2023-05-17T10:25:24;102256.08;;;25.39;7.31
64698;BME280;51124;53.394;-6.294;2023-05-17T10:27:41;102252.82;;;24.53;7.51
64698;BME280;51124;53.394;-6.294;2023-05-17T10:30:10;102249.73;;;24.55;7.29
64698;BME280;51124;53.394;-6.294;2023-05-17T10:32:38;102247.93;;;24.94;7.26
64698;BME280;51124;53.394;-6.294;2023-05-17T10:35:08;102243.03;;;25.86;7.25
64698;BME280;51124;53.394;-6.294;2023-05-17T10:37:36;102239.87;;;24.20;7.46
64698;BME280;51124;53.394;-6.294;2023-05-17T10:40:04;102238.52;;;25.60;7.44
64698;BME280;51124;53.394;-6.294;2023-05-17T10:42:32;102237.71;;;23.89;7.40
64698;BME280;51124;53.394;-6.294;2023-05-17T10:45:01;102237.06;;;24.56;7.58
64698;BME280;51124;53.394;-6.294;2023-05-17T10:47:34;102242.29;;;24.52;7.37
64698;BME280;51124;53.394;-6.294;2023-05-17T10:50:10;102244.23;;;26.30;7.27
64698;BME280;51124;53.394;-6.294;2023-05-17T10:52:28;102241.86;;;25.33;7.32
64698;BME280;51124;53.394;-6.294;2023-05-17T10:55:09;102239.35;;;25.71;7.21
64698;BME280;51124;53.394;-6.294;2023-05-17T10:57:35;102240.48;;;25.26;7.11
64698;BME280;51124;53.394;-6.294;2023-05-17T10:59:59;102230.91;;;25.42;6.95
64698;BME280;51124;53.394;-6.294;2023-05-17T11:02:32;102231.62;;;25.64;6.92
64698;BME280;51124;53.394;-6.294;2023-05-17T11:04:58;102230.78;;;24.61;7.00
64698;BME280;51124;53.394;-6.294;2023-05-17T11:07:25;102237.74;;;25.08;6.83
64698;BME280;51124;53.394;-6.294;2023-05-17T11:09:54;102225.67;;;25.78;6.75
64698;BME280;51124;53.394;-6.294;2023-05-17T11:12:31;102223.57;;;27.87;6.99
64698;BME280;51124;53.394;-6.294;2023-05-17T11:15:11;102224.38;;;27.11;7.57
64698;BME280;51124;53.394;-6.294;2023-05-17T11:17:49;102221.56;;;27.34;7.65
64698;BME280;51124;53.394;-6.294;2023-05-17T11:20:32;102225.52;;;28.16;7.66
64698;BME280;51124;53.394;-6.294;2023-05-17T11:22:50;102227.84;;;26.85;7.98
64698;BME280;51124;53.394;-6.294;2023-05-17T11:25:04;102229.32;;;27.38;7.79
64698;BME280;51124;53.394;-6.294;2023-05-17T11:27:48;102223.55;;;27.08;7.88
64698;BME280;51124;53.394;-6.294;2023-05-17T11:30:07;102221.16;;;27.29;7.88
64698;BME280;51124;53.394;-6.294;2023-05-17T11:32:47;102220.60;;;26.61;7.97
64698;BME280;51124;53.394;-6.294;2023-05-17T11:35:27;102224.69;;;27.92;7.67
64698;BME280;51124;53.394;-6.294;2023-05-17T11:39:34;102226.46;;;27.07;7.85
64698;BME280;51124;53.394;-6.294;2023-05-17T11:42:09;102221.88;;;26.45;7.30
64698;BME280;51124;53.394;-6.294;2023-05-17T11:44:27;102228.22;;;26.97;7.36
64698;BME280;51124;53.394;-6.294;2023-05-17T11:47:53;102223.19;;;27.29;7.24
64698;BME280;51124;53.394;-6.294;2023-05-17T11:49:39;102225.97;;;26.53;7.35
64698;BME280;51124;53.394;-6.294;2023-05-17T11:52:16;102230.26;;;26.71;7.36
64698;BME280;51124;53.394;-6.294;2023-05-17T11:54:33;102228.71;;;26.25;7.44
64698;BME280;51124;53.394;-6.294;2023-05-17T11:56:52;102223.16;;;24.44;7.49
64698;BME280;51124;53.394;-6.294;2023-05-17T11:59:20;102218.52;;;27.04;7.25
64698;BME280;51124;53.394;-6.294;2023-05-17T12:01:47;102225.43;;;27.18;7.26
64698;BME280;51124;53.394;-6.294;2023-05-17T12:04:13;102224.27;;;27.98;7.25
64698;BME280;51124;53.394;-6.294;2023-05-17T12:06:46;102216.06;;;27.04;7.46
64698;BME280;51124;53.394;-6.294;2023-05-17T12:09:15;102215.32;;;28.14;7.47
64698;BME280;51124;53.394;-6.294;2023-05-17T12:11:41;102210.88;;;26.86;7.75
64698;BME280;51124;53.394;-6.294;2023-05-17T12:14:07;102210.45;;;26.88;7.94
64698;BME280;51124;53.394;-6.294;2023-05-17T12:16:34;102210.43;;;26.50;8.22
64698;BME280;51124;53.394;-6.294;2023-05-17T12:19:01;102211.62;;;27.43;8.01
64698;BME280;51124;53.394;-6.294;2023-05-17T12:21:30;102209.86;;;27.06;7.96
64698;BME280;51124;53.394;-6.294;2023-05-17T12:23:59;102208.03;;;28.29;7.44
64698;BME280;51124;53.394;-6.294;2023-05-17T12:26:24;102208.13;;;29.24;6.82
64698;BME280;51124;53.394;-6.294;2023-05-17T12:28:54;102204.35;;;29.99;6.49
64698;BME280;51124;53.394;-6.294;2023-05-17T12:31:30;102198.72;;;30.65;6.17
64698;BME280;51124;53.394;-6.294;2023-05-17T12:33:47;102198.64;;;30.21;6.39
64698;BME280;51124;53.394;-6.294;2023-05-17T12:36:13;102198.52;;;30.06;6.58
64698;BME280;51124;53.394;-6.294;2023-05-17T12:38:40;102204.72;;;27.65;7.27
64698;BME280;51124;53.394;-6.294;2023-05-17T12:41:09;102203.19;;;27.66;7.52
64698;BME280;51124;53.394;-6.294;2023-05-17T12:43:38;102196.23;;;30.33;6.77
64698;BME280;51124;53.394;-6.294;2023-05-17T12:46:07;102191.76;;;31.80;6.08
64698;BME280;51124;53.394;-6.294;2023-05-17T12:48:39;102192.71;;;29.80;6.54
64698;BME280;51124;53.394;-6.294;2023-05-17T12:51:08;102187.47;;;29.39;6.60
64698;BME280;51124;53.394;-6.294;2023-05-17T12:53:36;102182.76;;;30.81;5.86